sensor_id;sensor_type;location;lat;lon;timestamp;pressure;altitude;pressure_sealevel;temperature;humidity
51452;BME280;37521;52.020;-1.740;2023-12-04T00:02:14;98374.97;;;3.99;100.00
51452;BME280;37521;52.020;-1.740;2023-12-04T00:04:43;98371.59;;;3.97;100.00
51452;BME280;37521;52.020;-1.740;2023-12-04T00:07:13;98371.59;;;3.97;100.00
51452;BME280;37521;52.020;-1.740;2023-12-04T00:09:42;98354.91;;;3.99;100.00
51452;BME280;37521;52.020;-1.740;2023-12-04T00:12:10;98355.84;;;3.98;100.00
51452;BME280;37521;52.020;-1.740;2023-12-04T00:14:39;98342.09;;;3.95;100.00
51452;BME280;37521;52.020;-1.740;2023-12-04T00:17:08;98349.00;;;3.96;100.00
51452;BME280;37521;52.020;-1.740;2023-12-04T00:19:37;98323.88;;;3.93;100.00
51452;BME280;37521;52.020;-1.740;2023-12-04T00:22:05;98334.31;;;3.93;100.00
51452;BME280;37521;52.020;-1.740;2023-12-04T00:24:36;98324.69;;;3.94;100.00
51452;BME280;37521;52.020;-1.740;2023-12-04T00:27:04;98328.25;;;3.93;100.00
51452;BME280;37521;52.020;-1.740;2023-12-04T00:29:33;98314.41;;;3.91;100.00
51452;BME280;37521;52.020;-1.740;2023-12-04T00:32:02;98304.06;;;3.89;100.00
51452;BME280;37521;52.020;-1.740;2023-12-04T00:34:31;98302.38;;;3.88;100.00
51452;BME280;37521;52.020;-1.740;2023-12-04T00:37:00;98291.03;;;3.88;100.00
51452;BME280;37521;52.020;-1.740;2023-12-04T00:39:29;98287.53;;;3.89;100.00
51452;BME280;37521;52.020;-1.740;2023-12-04T00:41:59;98281.31;;;3.91;100.00
51452;BME280;37521;52.020;-1.740;2023-12-04T00:44:28;98264.81;;;3.91;100.00
51452;BME280;37521;52.020;-1.740;2023-12-04T00:46:57;98258.81;;;3.89;100.00
51452;BME280;37521;52.020;-1.740;2023-12-04T00:49:26;98257.09;;;3.88;100.00
51452;BME280;37521;52.020;-1.740;2023-12-04T00:51:55;98250.19;;;3.87;100.00
51452;BME280;37521;52.020;-1.740;2023-12-04T00:54:24;98244.84;;;3.90;100.00
51452;BME280;37521;52.020;-1.740;2023-12-04T00:56:53;98234.41;;;3.90;100.00
51452;BME280;37521;52.020;-1.740;2023-12-04T00:59:23;98231.72;;;3.91;100.00
51452;BME280;37521;52.020;-1.740;2023-12-04T01:01:52;98229.09;;;3.91;100.00
51452;BME280;37521;52.020;-1.740;2023-12-04T01:04:20;98225.66;;;3.91;100.00
51452;BME280;37521;52.020;-1.740;2023-12-04T01:06:49;98223.03;;;3.91;100.00
51452;BME280;37521;52.020;-1.740;2023-12-04T01:09:18;98209.91;;;3.92;100.00
51452;BME280;37521;52.020;-1.740;2023-12-04T01:11:52;98202.78;;;3.96;100.00
51452;BME280;37521;52.020;-1.740;2023-12-04T01:14:23;98203.63;;;3.96;100.00
51452;BME280;37521;52.020;-1.740;2023-12-04T01:16:51;98202.78;;;3.96;100.00
51452;BME280;37521;52.020;-1.740;2023-12-04T01:19:20;98185.44;;;3.95;100.00
51452;BME280;37521;52.020;-1.740;2023-12-04T01:21:49;98187.13;;;3.96;100.00
51452;BME280;37521;52.020;-1.740;2023-12-04T01:24:17;98194.03;;;3.97;100.00
51452;BME280;37521;52.020;-1.740;2023-12-04T01:26:46;98184.56;;;3.94;100.00
51452;BME280;37521;52.020;-1.740;2023-12-04T01:29:15;98178.44;;;3.95;100.00
51452;BME280;37521;52.020;-1.740;2023-12-04T01:31:45;98172.28;;;3.96;100.00
51452;BME280;37521;52.020;-1.740;2023-12-04T01:34:14;98172.38;;;3.95;100.00
51452;BME280;37521;52.020;-1.740;2023-12-04T01:36:42;98166.34;;;3.93;100.00
51452;BME280;37521;52.020;-1.740;2023-12-04T01:39:11;98163.63;;;3.96;100.00
51452;BME280;37521;52.020;-1.740;2023-12-04T01:41:40;98166.22;;;3.96;100.00
51452;BME280;37521;52.020;-1.740;2023-12-04T01:44:08;98168.00;;;3.95;100.00
51452;BME280;37521;52.020;-1.740;2023-12-04T01:46:37;98162.81;;;3.94;100.00
51452;BME280;37521;52.020;-1.740;2023-12-04T01:49:08;98164.66;;;3.92;100.00
51452;BME280;37521;52.020;-1.740;2023-12-04T01:51:37;98145.78;;;3.87;100.00
51452;BME280;37521;52.020;-1.740;2023-12-04T01:54:06;98152.84;;;3.85;100.00
51452;BME280;37521;52.020;-1.740;2023-12-04T01:56:36;98157.22;;;3.84;100.00
51452;BME280;37521;52.020;-1.740;2023-12-04T01:59:04;98150.16;;;3.86;100.00
51452;BME280;37521;52.020;-1.740;2023-12-04T02:01:34;98137.00;;;3.88;100.00
51452;BME280;37521;52.020;-1.740;2023-12-04T02:04:04;98127.50;;;3.87;100.00
51452;BME280;37521;52.020;-1.740;2023-12-04T02:06:34;98132.88;;;3.83;100.00
51452;BME280;37521;52.020;-1.740;2023-12-04T02:09:03;98131.31;;;3.79;100.00
51452;BME280;37521;52.020;-1.740;2023-12-04T02:11:33;98129.00;;;3.73;100.00
51452;BME280;37521;52.020;-1.740;2023-12-04T02:14:02;98115.19;;;3.71;100.00
51452;BME280;37521;52.020;-1.740;2023-12-04T02:16:32;98123.03;;;3.71;100.00
51452;BME280;37521;52.020;-1.740;2023-12-04T02:19:03;98126.56;;;3.70;100.00
51452;BME280;37521;52.020;-1.740;2023-12-04T02:21:33;98115.38;;;3.68;100.00
51452;BME280;37521;52.020;-1.740;2023-12-04T02:24:04;98118.94;;;3.66;100.00
51452;BME280;37521;52.020;-1.740;2023-12-04T02:26:36;98113.81;;;3.64;100.00
51452;BME280;37521;52.020;-1.740;2023-12-04T02:29:11;98109.53;;;3.63;100.00
51452;BME280;37521;52.020;-1.740;2023-12-04T02:31:42;98102.75;;;3.59;100.00
51452;BME280;37521;52.020;-1.740;2023-12-04T02:34:13;98101.16;;;3.57;100.00
51452;BME280;37521;52.020;-1.740;2023-12-04T02:36:43;98098.63;;;3.55;100.00
51452;BME280;37521;52.020;-1.740;2023-12-04T02:39:14;98097.81;;;3.53;100.00
51452;BME280;37521;52.020;-1.740;2023-12-04T02:41:43;98091.84;;;3.51;100.00
51452;BME280;37521;52.020;-1.740;2023-12-04T02:44:12;98091.91;;;3.49;100.00
51452;BME280;37521;52.020;-1.740;2023-12-04T02:46:40;98079.00;;;3.46;100.00
51452;BME280;37521;52.020;-1.740;2023-12-04T02:49:09;98077.31;;;3.45;100.00
51452;BME280;37521;52.020;-1.740;2023-12-04T02:51:40;98074.72;;;3.45;100.00
51452;BME280;37521;52.020;-1.740;2023-12-04T02:54:09;98066.97;;;3.44;100.00
51452;BME280;37521;52.020;-1.740;2023-12-04T02:56:39;98062.69;;;3.43;100.00
51452;BME280;37521;52.020;-1.740;2023-12-04T02:59:08;98058.38;;;3.42;100.00
51452;BME280;37521;52.020;-1.740;2023-12-04T03:01:37;98050.59;;;3.40;100.00
51452;BME280;37521;52.020;-1.740;2023-12-04T03:04:05;98042.88;;;3.39;100.00
51452;BME280;37521;52.020;-1.740;2023-12-04T03:06:34;98045.38;;;3.40;100.00
51452;BME280;37521;52.020;-1.740;2023-12-04T03:09:03;98031.50;;;3.40;100.00
51452;BME280;37521;52.020;-1.740;2023-12-04T03:11:32;98020.22;;;3.39;100.00
51452;BME280;37521;52.020;-1.740;2023-12-04T03:14:02;98014.16;;;3.39;100.00
51452;BME280;37521;52.020;-1.740;2023-12-04T03:16:31;98015.00;;;3.39;100.00
51452;BME280;37521;52.020;-1.740;2023-12-04T03:19:00;98015.09;;;3.38;100.00
51452;BME280;37521;52.020;-1.740;2023-12-04T03:21:29;98003.81;;;3.37;100.00
51452;BME280;37521;52.020;-1.740;2023-12-04T03:23:57;97998.69;;;3.36;100.00
51452;BME280;37521;52.020;-1.740;2023-12-04T03:26:26;98003.91;;;3.36;100.00
51452;BME280;37521;52.020;-1.740;2023-12-04T03:28:55;97993.47;;;3.36;100.00
51452;BME280;37521;52.020;-1.740;2023-12-04T03:31:25;97986.56;;;3.35;100.00
51452;BME280;37521;52.020;-1.740;2023-12-04T03:33:55;97984.00;;;3.33;100.00
51452;BME280;37521;52.020;-1.740;2023-12-04T03:36:24;97981.41;;;3.33;100.00
51452;BME280;37521;52.020;-1.740;2023-12-04T03:38:53;97965.84;;;3.32;100.00
51452;BME280;37521;52.020;-1.740;2023-12-04T03:41:21;97963.22;;;3.32;100.00
51452;BME280;37521;52.020;-1.740;2023-12-04T03:43:50;97963.31;;;3.30;100.00
51452;BME280;37521;52.020;-1.740;2023-12-04T03:46:19;97958.94;;;3.31;100.00
51452;BME280;37521;52.020;-1.740;2023-12-04T03:48:49;97957.25;;;3.30;100.00
51452;BME280;37521;52.020;-1.740;2023-12-04T03:51:18;97946.81;;;3.30;100.00
51452;BME280;37521;52.020;-1.740;2023-12-04T03:53:47;97946.81;;;3.30;100.00
51452;BME280;37521;52.020;-1.740;2023-12-04T03:56:16;97944.22;;;3.30;100.00
51452;BME280;37521;52.020;-1.740;2023-12-04T03:58:44;97946.81;;;3.30;100.00
51452;BME280;37521;52.020;-1.740;2023-12-04T04:01:13;97948.63;;;3.27;100.00
51452;BME280;37521;52.020;-1.740;2023-12-04T04:03:42;97936.38;;;3.30;100.00
51452;BME280;37521;52.020;-1.740;2023-12-04T04:06:14;97934.63;;;3.30;100.00
51452;BME280;37521;52.020;-1.740;2023-12-04T04:08:43;97929.50;;;3.28;100.00
51452;BME280;37521;52.020;-1.740;2023-12-04T04:11:12;97931.16;;;3.30;100.00
51452;BME280;37521;52.020;-1.740;2023-12-04T04:13:40;97934.53;;;3.32;100.00
51452;BME280;37521;52.020;-1.740;2023-12-04T04:16:14;97925.78;;;3.33;100.00
51452;BME280;37521;52.020;-1.740;2023-12-04T04:18:43;97917.22;;;3.31;100.00
51452;BME280;37521;52.020;-1.740;2023-12-04T04:21:13;97913.66;;;3.32;100.00
51452;BME280;37521;52.020;-1.740;2023-12-04T04:23:42;97912.00;;;3.31;100.00
51452;BME280;37521;52.020;-1.740;2023-12-04T04:26:11;97901.56;;;3.31;100.00
51452;BME280;37521;52.020;-1.740;2023-12-04T04:28:39;97900.53;;;3.33;100.00
51452;BME280;37521;52.020;-1.740;2023-12-04T04:31:08;97896.16;;;3.34;100.00
51452;BME280;37521;52.020;-1.740;2023-12-04T04:33:37;97895.28;;;3.35;100.00
51452;BME280;37521;52.020;-1.740;2023-12-04T04:36:09;97886.56;;;3.34;100.00
51452;BME280;37521;52.020;-1.740;2023-12-04T04:38:40;97883.91;;;3.36;100.00
51452;BME280;37521;52.020;-1.740;2023-12-04T04:41:13;97883.91;;;3.36;100.00
51452;BME280;37521;52.020;-1.740;2023-12-04T04:43:42;97883.00;;;3.37;100.00
51452;BME280;37521;52.020;-1.740;2023-12-04T04:46:11;97873.31;;;3.39;100.00
51452;BME280;37521;52.020;-1.740;2023-12-04T04:48:40;97866.41;;;3.38;100.00
51452;BME280;37521;52.020;-1.740;2023-12-04T04:51:09;97860.25;;;3.39;100.00
51452;BME280;37521;52.020;-1.740;2023-12-04T04:53:39;97863.72;;;3.39;100.00
51452;BME280;37521;52.020;-1.740;2023-12-04T04:56:09;97861.03;;;3.41;100.00
51452;BME280;37521;52.020;-1.740;2023-12-04T04:58:38;97854.06;;;3.41;100.00
51452;BME280;37521;52.020;-1.740;2023-12-04T05:01:07;97852.31;;;3.42;100.00
51452;BME280;37521;52.020;-1.740;2023-12-04T05:03:36;97852.13;;;3.45;100.00
51452;BME280;37521;52.020;-1.740;2023-12-04T05:06:05;97850.28;;;3.47;100.00
51452;BME280;37521;52.020;-1.740;2023-12-04T05:08:34;97846.81;;;3.46;100.00
51452;BME280;37521;52.020;-1.740;2023-12-04T05:11:05;97842.44;;;3.47;100.00
51452;BME280;37521;52.020;-1.740;2023-12-04T05:13:33;97838.94;;;3.48;100.00
51452;BME280;37521;52.020;-1.740;2023-12-04T05:16:03;97841.53;;;3.48;100.00
51452;BME280;37521;52.020;-1.740;2023-12-04T05:18:32;97841.53;;;3.48;100.00
51452;BME280;37521;52.020;-1.740;2023-12-04T05:21:01;97831.94;;;3.48;100.00
51452;BME280;37521;52.020;-1.740;2023-12-04T05:23:30;97834.47;;;3.50;100.00
51452;BME280;37521;52.020;-1.740;2023-12-04T05:25:59;97829.25;;;3.50;100.00
51452;BME280;37521;52.020;-1.740;2023-12-04T05:28:29;97828.41;;;3.49;100.00
51452;BME280;37521;52.020;-1.740;2023-12-04T05:30:59;97824.88;;;3.50;100.00
51452;BME280;37521;52.020;-1.740;2023-12-04T05:33:28;97830.09;;;3.50;100.00
51452;BME280;37521;52.020;-1.740;2023-12-04T05:35:57;97823.94;;;3.51;100.00
51452;BME280;37521;52.020;-1.740;2023-12-04T05:38:25;97822.19;;;3.52;100.00
51452;BME280;37521;52.020;-1.740;2023-12-04T05:40:54;97823.88;;;3.53;100.00
51452;BME280;37521;52.020;-1.740;2023-12-04T05:43:23;97824.69;;;3.53;100.00
51452;BME280;37521;52.020;-1.740;2023-12-04T05:45:53;97819.44;;;3.55;100.00
51452;BME280;37521;52.020;-1.740;2023-12-04T05:48:22;97830.63;;;3.57;100.00
51452;BME280;37521;52.020;-1.740;2023-12-04T05:50:50;97823.72;;;3.56;100.00
51452;BME280;37521;52.020;-1.740;2023-12-04T05:53:19;97820.28;;;3.55;100.00
51452;BME280;37521;52.020;-1.740;2023-12-04T05:55:48;97822.03;;;3.55;100.00
51452;BME280;37521;52.020;-1.740;2023-12-04T05:58:16;97820.19;;;3.57;100.00
51452;BME280;37521;52.020;-1.740;2023-12-04T06:00:45;97810.69;;;3.56;100.00
51452;BME280;37521;52.020;-1.740;2023-12-04T06:03:15;97813.09;;;3.59;100.00
51452;BME280;37521;52.020;-1.740;2023-12-04T06:05:44;97814.78;;;3.60;100.00
51452;BME280;37521;52.020;-1.740;2023-12-04T06:08:13;97811.28;;;3.61;100.00
51452;BME280;37521;52.020;-1.740;2023-12-04T06:10:41;97804.19;;;3.63;100.00
51452;BME280;37521;52.020;-1.740;2023-12-04T06:13:10;97800.75;;;3.63;100.00
51452;BME280;37521;52.020;-1.740;2023-12-04T06:15:39;97797.31;;;3.62;100.00
51452;BME280;37521;52.020;-1.740;2023-12-04T06:18:08;97793.75;;;3.63;100.00
51452;BME280;37521;52.020;-1.740;2023-12-04T06:20:38;97788.53;;;3.63;100.00
51452;BME280;37521;52.020;-1.740;2023-12-04T06:23:07;97793.75;;;3.63;100.00
51452;BME280;37521;52.020;-1.740;2023-12-04T06:25:36;97790.03;;;3.67;100.00
51452;BME280;37521;52.020;-1.740;2023-12-04T06:28:06;97789.16;;;3.68;100.00
51452;BME280;37521;52.020;-1.740;2023-12-04T06:30:35;97783.84;;;3.70;100.00
51452;BME280;37521;52.020;-1.740;2023-12-04T06:33:04;97787.38;;;3.69;100.00
51452;BME280;37521;52.020;-1.740;2023-12-04T06:35:34;97784.69;;;3.70;100.00
51452;BME280;37521;52.020;-1.740;2023-12-04T06:38:06;97786.34;;;3.71;100.00
51452;BME280;37521;52.020;-1.740;2023-12-04T06:40:36;97782.72;;;3.74;100.00
51452;BME280;37521;52.020;-1.740;2023-12-04T06:43:06;97782.66;;;3.75;100.00
51452;BME280;37521;52.020;-1.740;2023-12-04T06:45:35;97776.53;;;3.76;100.00
51452;BME280;37521;52.020;-1.740;2023-12-04T06:48:05;97780.81;;;3.77;100.00
51452;BME280;37521;52.020;-1.740;2023-12-04T06:50:35;97778.09;;;3.79;100.00
51452;BME280;37521;52.020;-1.740;2023-12-04T06:53:06;97775.41;;;3.80;100.00
51452;BME280;37521;52.020;-1.740;2023-12-04T06:55:34;97780.63;;;3.80;100.00
51452;BME280;37521;52.020;-1.740;2023-12-04T06:58:03;97780.63;;;3.80;100.00
51452;BME280;37521;52.020;-1.740;2023-12-04T07:00:32;97773.63;;;3.81;100.00
51452;BME280;37521;52.020;-1.740;2023-12-04T07:03:01;97778.78;;;3.82;100.00
51452;BME280;37521;52.020;-1.740;2023-12-04T07:05:29;97784.75;;;3.85;100.00
51452;BME280;37521;52.020;-1.740;2023-12-04T07:07:58;97775.06;;;3.87;100.00
51452;BME280;37521;52.020;-1.740;2023-12-04T07:10:28;97776.75;;;3.88;100.00
51452;BME280;37521;52.020;-1.740;2023-12-04T07:13:01;97773.25;;;3.89;100.00
51452;BME280;37521;52.020;-1.740;2023-12-04T07:15:30;97779.22;;;3.91;100.00
51452;BME280;37521;52.020;-1.740;2023-12-04T07:17:59;97780.88;;;3.92;100.00
51452;BME280;37521;52.020;-1.740;2023-12-04T07:20:27;97780.78;;;3.93;100.00
51452;BME280;37521;52.020;-1.740;2023-12-04T07:22:56;97777.34;;;3.93;100.00
51452;BME280;37521;52.020;-1.740;2023-12-04T07:25:25;97779.97;;;3.93;100.00
51452;BME280;37521;52.020;-1.740;2023-12-04T07:27:55;97774.72;;;3.93;100.00
51452;BME280;37521;52.020;-1.740;2023-12-04T07:30:25;97782.56;;;3.93;100.00
51452;BME280;37521;52.020;-1.740;2023-12-04T07:32:54;97774.72;;;3.93;100.00
51452;BME280;37521;52.020;-1.740;2023-12-04T07:35:23;97784.34;;;3.92;100.00
51452;BME280;37521;52.020;-1.740;2023-12-04T07:37:51;97779.13;;;3.92;100.00
51452;BME280;37521;52.020;-1.740;2023-12-04T07:40:20;97778.13;;;3.95;100.00
51452;BME280;37521;52.020;-1.740;2023-12-04T07:42:50;97778.13;;;3.95;100.00
51452;BME280;37521;52.020;-1.740;2023-12-04T07:45:20;97777.25;;;3.94;100.00
51452;BME280;37521;52.020;-1.740;2023-12-04T07:47:51;97791.94;;;3.97;100.00
51452;BME280;37521;52.020;-1.740;2023-12-04T07:50:20;97784.84;;;3.99;100.00
51452;BME280;37521;52.020;-1.740;2023-12-04T07:52:48;97784.69;;;4.02;100.00
51452;BME280;37521;52.020;-1.740;2023-12-04T07:55:17;97782.97;;;4.01;100.00
51452;BME280;37521;52.020;-1.740;2023-12-04T07:57:46;97801.19;;;4.02;100.00
51452;BME280;37521;52.020;-1.740;2023-12-04T08:00:16;97795.13;;;4.02;100.00
51452;BME280;37521;52.020;-1.740;2023-12-04T08:02:46;97796.81;;;4.03;100.00
51452;BME280;37521;52.020;-1.740;2023-12-04T08:05:15;97795.88;;;4.04;100.00
51452;BME280;37521;52.020;-1.740;2023-12-04T08:07:44;97802.78;;;4.05;100.00
51452;BME280;37521;52.020;-1.740;2023-12-04T08:10:13;97796.63;;;4.06;100.00
51452;BME280;37521;52.020;-1.740;2023-12-04T08:12:44;97801.09;;;4.04;100.00
51452;BME280;37521;52.020;-1.740;2023-12-04T08:15:14;97801.09;;;4.04;100.00
51452;BME280;37521;52.020;-1.740;2023-12-04T08:17:42;97805.41;;;4.05;100.00
51452;BME280;37521;52.020;-1.740;2023-12-04T08:20:13;97810.81;;;4.02;100.00
51452;BME280;37521;52.020;-1.740;2023-12-04T08:22:50;97809.88;;;4.03;100.00
51452;BME280;37521;52.020;-1.740;2023-12-04T08:25:19;97799.44;;;4.03;100.00
51452;BME280;37521;52.020;-1.740;2023-12-04T08:27:48;97808.09;;;4.03;100.00
51452;BME280;37521;52.020;-1.740;2023-12-04T08:30:18;97808.09;;;4.03;100.00
51452;BME280;37521;52.020;-1.740;2023-12-04T08:32:47;97809.88;;;4.03;100.00
51452;BME280;37521;52.020;-1.740;2023-12-04T08:35:17;97808.94;;;4.04;100.00
51452;BME280;37521;52.020;-1.740;2023-12-04T08:37:46;97807.16;;;4.04;100.00
51452;BME280;37521;52.020;-1.740;2023-12-04T08:40:15;97806.22;;;4.05;100.00
51452;BME280;37521;52.020;-1.740;2023-12-04T08:42:44;97801.84;;;4.06;100.00
51452;BME280;37521;52.020;-1.740;2023-12-04T08:45:13;97809.59;;;4.07;100.00
51452;BME280;37521;52.020;-1.740;2023-12-04T08:47:44;97808.75;;;4.07;100.00
51452;BME280;37521;52.020;-1.740;2023-12-04T08:50:13;97813.00;;;4.09;100.00
51452;BME280;37521;52.020;-1.740;2023-12-04T08:52:44;97810.28;;;4.11;100.00
51452;BME280;37521;52.020;-1.740;2023-12-04T08:55:13;97811.97;;;4.12;100.00
51452;BME280;37521;52.020;-1.740;2023-12-04T08:57:42;97810.28;;;4.11;100.00
51452;BME280;37521;52.020;-1.740;2023-12-04T09:00:12;97813.81;;;4.10;100.00
51452;BME280;37521;52.020;-1.740;2023-12-04T09:02:41;97810.28;;;4.11;100.00
51452;BME280;37521;52.020;-1.740;2023-12-04T09:05:19;97811.22;;;4.10;100.00
51452;BME280;37521;52.020;-1.740;2023-12-04T09:07:49;97813.91;;;4.08;100.00
51452;BME280;37521;52.020;-1.740;2023-12-04T09:10:38;97806.94;;;4.09;100.00
51452;BME280;37521;52.020;-1.740;2023-12-04T09:13:27;97807.66;;;4.11;100.00
51452;BME280;37521;52.020;-1.740;2023-12-04T09:15:56;97804.97;;;4.13;100.00
51452;BME280;37521;52.020;-1.740;2023-12-04T09:18:25;97812.81;;;4.13;100.00
51452;BME280;37521;52.020;-1.740;2023-12-04T09:20:53;97809.34;;;4.12;100.00
51452;BME280;37521;52.020;-1.740;2023-12-04T09:23:24;97810.09;;;4.14;100.00
51452;BME280;37521;52.020;-1.740;2023-12-04T09:25:54;97811.81;;;4.15;100.00
51452;BME280;37521;52.020;-1.740;2023-12-04T09:28:23;97809.94;;;4.17;100.00
51452;BME280;37521;52.020;-1.740;2023-12-04T09:30:52;97805.56;;;4.18;100.00
51452;BME280;37521;52.020;-1.740;2023-12-04T09:33:21;97803.78;;;4.18;100.00
51452;BME280;37521;52.020;-1.740;2023-12-04T09:35:50;97809.75;;;4.20;100.00
51452;BME280;37521;52.020;-1.740;2023-12-04T09:38:18;97810.59;;;4.21;100.00
51452;BME280;37521;52.020;-1.740;2023-12-04T09:40:49;97814.06;;;4.21;100.00
51452;BME280;37521;52.020;-1.740;2023-12-04T09:43:21;97818.38;;;4.22;100.00
51452;BME280;37521;52.020;-1.740;2023-12-04T09:45:49;97811.28;;;4.24;100.00
51452;BME280;37521;52.020;-1.740;2023-12-04T09:48:18;97819.03;;;4.26;100.00
51452;BME280;37521;52.020;-1.740;2023-12-04T09:50:47;97818.03;;;4.28;100.00
51452;BME280;37521;52.020;-1.740;2023-12-04T09:53:16;97822.31;;;4.29;100.00
51452;BME280;37521;52.020;-1.740;2023-12-04T09:55:48;97821.41;;;4.30;100.00
51452;BME280;37521;52.020;-1.740;2023-12-04T09:58:19;97822.31;;;4.29;100.00
51452;BME280;37521;52.020;-1.740;2023-12-04T10:00:48;97826.72;;;4.29;100.00
51452;BME280;37521;52.020;-1.740;2023-12-04T10:03:17;97834.47;;;4.30;100.00
51452;BME280;37521;52.020;-1.740;2023-12-04T10:05:46;97830.16;;;4.29;100.00
51452;BME280;37521;52.020;-1.740;2023-12-04T10:08:15;97830.16;;;4.29;100.00
51452;BME280;37521;52.020;-1.740;2023-12-04T10:10:44;97828.31;;;4.31;100.00
51452;BME280;37521;52.020;-1.740;2023-12-04T10:13:14;97842.09;;;4.33;100.00
51452;BME280;37521;52.020;-1.740;2023-12-04T10:16:03;97837.81;;;4.32;100.00
51452;BME280;37521;52.020;-1.740;2023-12-04T10:18:32;97839.59;;;4.32;100.00
51452;BME280;37521;52.020;-1.740;2023-12-04T10:21:01;97834.38;;;4.32;100.00
51452;BME280;37521;52.020;-1.740;2023-12-04T10:23:37;97839.50;;;4.33;100.00
51452;BME280;37521;52.020;-1.740;2023-12-04T10:26:07;97839.59;;;4.32;100.00
51452;BME280;37521;52.020;-1.740;2023-12-04T10:28:37;97826.44;;;4.33;100.00
51452;BME280;37521;52.020;-1.740;2023-12-04T10:31:06;97839.44;;;4.35;100.00
51452;BME280;37521;52.020;-1.740;2023-12-04T10:33:35;97836.88;;;4.33;100.00
51452;BME280;37521;52.020;-1.740;2023-12-04T10:36:11;97828.31;;;4.31;100.00
51452;BME280;37521;52.020;-1.740;2023-12-04T10:38:40;97823.91;;;4.32;100.00
51452;BME280;37521;52.020;-1.740;2023-12-04T10:41:12;97824.75;;;4.32;100.00
51452;BME280;37521;52.020;-1.740;2023-12-04T10:43:48;97830.81;;;4.33;100.00
51452;BME280;37521;52.020;-1.740;2023-12-04T10:46:27;97828.13;;;4.34;100.00
51452;BME280;37521;52.020;-1.740;2023-12-04T10:48:57;97824.75;;;4.32;100.00
51452;BME280;37521;52.020;-1.740;2023-12-04T10:51:28;97833.53;;;4.31;100.00
51452;BME280;37521;52.020;-1.740;2023-12-04T10:53:57;97832.78;;;4.29;100.00
51452;BME280;37521;52.020;-1.740;2023-12-04T10:56:35;97834.56;;;4.29;100.00
51452;BME280;37521;52.020;-1.740;2023-12-04T10:59:10;97832.94;;;4.26;100.00
51452;BME280;37521;52.020;-1.740;2023-12-04T11:01:41;97837.41;;;4.24;100.00
51452;BME280;37521;52.020;-1.740;2023-12-04T11:04:17;97835.81;;;4.22;100.00
51452;BME280;37521;52.020;-1.740;2023-12-04T11:06:51;97834.06;;;4.22;100.00
51452;BME280;37521;52.020;-1.740;2023-12-04T11:09:21;97827.09;;;4.21;100.00
51452;BME280;37521;52.020;-1.740;2023-12-04T11:11:57;97828.03;;;4.20;100.00
51452;BME280;37521;52.020;-1.740;2023-12-04T11:14:34;97832.44;;;4.20;100.00
51452;BME280;37521;52.020;-1.740;2023-12-04T11:17:08;97823.75;;;4.19;100.00
51452;BME280;37521;52.020;-1.740;2023-12-04T11:19:45;97830.75;;;4.19;100.00
51452;BME280;37521;52.020;-1.740;2023-12-04T11:22:17;97829.06;;;4.18;100.00
51452;BME280;37521;52.020;-1.740;2023-12-04T11:24:48;97830.94;;;4.16;100.00
51452;BME280;37521;52.020;-1.740;2023-12-04T11:27:17;97829.16;;;4.16;100.00
51452;BME280;37521;52.020;-1.740;2023-12-04T11:29:48;97827.38;;;4.17;100.00
51452;BME280;37521;52.020;-1.740;2023-12-04T11:32:17;97829.16;;;4.16;100.00
51452;BME280;37521;52.020;-1.740;2023-12-04T11:34:50;97828.22;;;4.17;100.00
51452;BME280;37521;52.020;-1.740;2023-12-04T11:37:20;97828.88;;;4.21;100.00
51452;BME280;37521;52.020;-1.740;2023-12-04T11:39:49;97828.22;;;4.17;100.00
51452;BME280;37521;52.020;-1.740;2023-12-04T11:42:19;97825.72;;;4.16;100.00
51452;BME280;37521;52.020;-1.740;2023-12-04T11:44:55;97824.78;;;4.17;100.00
51452;BME280;37521;52.020;-1.740;2023-12-04T11:47:27;97819.47;;;4.18;100.00
51452;BME280;37521;52.020;-1.740;2023-12-04T11:49:58;97825.53;;;4.19;100.00
51452;BME280;37521;52.020;-1.740;2023-12-04T11:52:32;97823.84;;;4.18;100.00
51452;BME280;37521;52.020;-1.740;2023-12-04T11:55:03;97812.56;;;4.17;100.00
51452;BME280;37521;52.020;-1.740;2023-12-04T11:57:35;97817.78;;;4.17;100.00
51452;BME280;37521;52.020;-1.740;2023-12-04T12:00:20;97822.91;;;4.19;100.00
51452;BME280;37521;52.020;-1.740;2023-12-04T12:03:01;97819.56;;;4.17;100.00
51452;BME280;37521;52.020;-1.740;2023-12-04T12:05:49;97815.16;;;4.17;100.00
51452;BME280;37521;52.020;-1.740;2023-12-04T12:08:23;97811.63;;;4.18;100.00
51452;BME280;37521;52.020;-1.740;2023-12-04T12:10:52;97806.41;;;4.18;100.00
51452;BME280;37521;52.020;-1.740;2023-12-04T12:13:22;97808.81;;;4.21;100.00
51452;BME280;37521;52.020;-1.740;2023-12-04T12:15:54;97807.09;;;4.22;100.00
51452;BME280;37521;52.020;-1.740;2023-12-04T12:18:26;97811.28;;;4.24;100.00
51452;BME280;37521;52.020;-1.740;2023-12-04T12:20:55;97804.28;;;4.25;100.00
51452;BME280;37521;52.020;-1.740;2023-12-04T12:23:26;97804.09;;;4.28;100.00
51452;BME280;37521;52.020;-1.740;2023-12-04T12:26:02;97810.00;;;4.31;100.00
51452;BME280;37521;52.020;-1.740;2023-12-04T12:28:31;97804.03;;;4.29;100.00
51452;BME280;37521;52.020;-1.740;2023-12-04T12:31:03;97805.72;;;4.30;100.00
51452;BME280;37521;52.020;-1.740;2023-12-04T12:33:32;97817.84;;;4.31;100.00
51452;BME280;37521;52.020;-1.740;2023-12-04T12:36:01;97807.50;;;4.30;100.00
51452;BME280;37521;52.020;-1.740;2023-12-04T12:38:31;97812.97;;;4.25;100.00
51452;BME280;37521;52.020;-1.740;2023-12-04T12:41:06;97804.38;;;4.23;100.00
51452;BME280;37521;52.020;-1.740;2023-12-04T12:43:37;97811.28;;;4.24;100.00
51452;BME280;37521;52.020;-1.740;2023-12-04T12:46:08;97807.75;;;4.25;100.00
51452;BME280;37521;52.020;-1.740;2023-12-04T12:48:37;97802.53;;;4.25;100.00
51452;BME280;37521;52.020;-1.740;2023-12-04T12:51:07;97807.59;;;4.28;100.00
51452;BME280;37521;52.020;-1.740;2023-12-04T12:53:39;97809.25;;;4.29;100.00
51452;BME280;37521;52.020;-1.740;2023-12-04T12:56:11;97809.09;;;4.32;100.00
51452;BME280;37521;52.020;-1.740;2023-12-04T12:58:41;97799.38;;;4.34;100.00
51452;BME280;37521;52.020;-1.740;2023-12-04T13:01:12;97813.22;;;4.36;100.00
51452;BME280;37521;52.020;-1.740;2023-12-04T13:03:45;97806.13;;;4.38;100.00
51452;BME280;37521;52.020;-1.740;2023-12-04T13:06:15;97806.13;;;4.38;100.00